Time;durP1;ratioP1;P1;durP2;ratioP2;P2;SDS_P1;SDS_P2;PMS_P1;PMS_P2;Temp;Humidity;BMP_temperature;BMP_pressure;BME280_temperature;BME280_humidity;BME280_pressure;Samples;Min_cycle;Max_cycle;Signal;HPM_P1;HPM_P2
2022/02/22 00:02:06;;;;;;;46.08;6.90;;;7.00;54.50;;;;;;5023260;28;20475;-72
2022/02/22 00:04:36;;;;;;;45.03;6.77;;;6.90;55.80;;;;;;5019309;28;20520;-74
2022/02/22 00:07:03;;;;;;;51.95;7.95;;;6.90;56.50;;;;;;5019331;28;20522;-72
2022/02/22 00:09:29;;;;;;;48.47;7.90;;;6.90;56.60;;;;;;5037333;28;20415;-75
2022/02/22 00:11:55;;;;;;;55.15;7.90;;;6.80;56.50;;;;;;5021359;28;20479;-72
2022/02/22 00:14:20;;;;;;;54.05;8.75;;;6.80;57.30;;;;;;5016006;28;20491;-73
2022/02/22 00:16:46;;;;;;;42.07;7.67;;;6.70;57.30;;;;;;5021942;28;20559;-72
2022/02/22 00:19:12;;;;;;;44.10;7.73;;;6.70;57.00;;;;;;5019876;28;20412;-72
2022/02/22 00:21:38;;;;;;;47.00;6.72;;;6.80;56.20;;;;;;5019259;28;20401;-72
2022/02/22 00:24:04;;;;;;;48.37;9.27;;;6.70;55.90;;;;;;5020904;28;20896;-73
2022/02/22 00:26:29;;;;;;;34.08;5.90;;;6.60;57.20;;;;;;5022621;28;20426;-72
2022/02/22 00:28:55;;;;;;;40.40;7.63;;;6.70;55.70;;;;;;5018016;28;20467;-73
2022/02/22 00:31:22;;;;;;;35.40;6.33;;;6.60;56.80;;;;;;5016857;28;20804;-73
2022/02/22 00:33:47;;;;;;;52.30;8.05;;;6.70;56.20;;;;;;5017564;28;20396;-73
2022/02/22 00:36:13;;;;;;;40.22;8.02;;;6.60;57.80;;;;;;5021201;28;20437;-72
2022/02/22 00:38:39;;;;;;;49.38;8.40;;;6.60;58.30;;;;;;5019311;28;20497;-72
2022/02/22 00:41:04;;;;;;;47.00;7.75;;;6.60;57.60;;;;;;5022502;28;20803;-72
2022/02/22 00:43:30;;;;;;;45.67;7.30;;;6.50;58.50;;;;;;5021349;28;20849;-72
2022/02/22 00:45:55;;;;;;;34.80;6.07;;;6.50;58.90;;;;;;5025553;28;20502;-72
2022/02/22 00:48:21;;;;;;;46.07;7.80;;;6.60;57.20;;;;;;5023643;28;20414;-74
2022/02/22 00:50:46;;;;;;;46.83;7.63;;;6.40;58.60;;;;;;5028135;28;20580;-73
2022/02/22 00:53:12;;;;;;;59.60;8.20;;;6.40;59.60;;;;;;5031030;28;20390;-73
2022/02/22 00:55:37;;;;;;;49.93;7.37;;;6.50;57.90;;;;;;5030225;28;20405;-74
2022/02/22 00:58:03;;;;;;;53.67;8.50;;;6.30;59.90;;;;;;5031365;28;20391;-74
2022/02/22 01:00:29;;;;;;;41.40;7.40;;;6.10;61.60;;;;;;5032892;28;20449;-72
2022/02/22 01:02:54;;;;;;;45.47;7.63;;;6.20;60.50;;;;;;5024128;28;20400;-74
2022/02/22 01:05:20;;;;;;;46.47;7.03;;;6.20;60.90;;;;;;5030155;28;20440;-74
2022/02/22 01:07:45;;;;;;;43.50;7.47;;;6.30;60.00;;;;;;5026173;28;20459;-74
2022/02/22 01:10:11;;;;;;;45.20;7.10;;;6.10;60.80;;;;;;5030250;28;20441;-74
2022/02/22 01:12:37;;;;;;;51.80;8.47;;;6.20;59.90;;;;;;5023805;28;20395;-74
2022/02/22 01:15:03;;;;;;;36.83;5.55;;;6.10;61.30;;;;;;5030179;28;20405;-74
2022/02/22 01:17:29;;;;;;;54.45;7.47;;;6.20;59.70;;;;;;5023636;28;20437;-74
2022/02/22 01:19:55;;;;;;;49.00;6.90;;;6.10;60.50;;;;;;5024706;28;20815;-74
2022/02/22 01:22:20;;;;;;;49.60;7.70;;;6.20;60.80;;;;;;5030095;28;20887;-74
2022/02/22 01:24:46;;;;;;;44.60;7.60;;;6.20;60.50;;;;;;5028442;28;20530;-75
2022/02/22 01:27:11;;;;;;;49.27;8.50;;;6.10;60.50;;;;;;5024107;28;20430;-74
2022/02/22 01:29:37;;;;;;;53.40;9.13;;;6.00;61.10;;;;;;5025567;28;20395;-75
2022/02/22 01:32:03;;;;;;;44.22;8.30;;;5.90;61.40;;;;;;5028023;28;20399;-74
2022/02/22 01:34:29;;;;;;;37.92;6.57;;;6.00;63.00;;;;;;5028728;28;20761;-73
2022/02/22 01:36:54;;;;;;;48.27;7.37;;;6.20;59.80;;;;;;5027829;28;20400;-73
2022/02/22 01:39:20;;;;;;;39.00;6.13;;;6.10;60.00;;;;;;5027316;28;20397;-73
2022/02/22 01:41:45;;;;;;;33.38;4.88;;;6.10;58.90;;;;;;5026862;28;20407;-73
2022/02/22 01:44:13;;;;;;;51.83;7.93;;;6.10;59.30;;;;;;5028928;28;20429;-73
2022/02/22 01:46:39;;;;;;;57.30;7.60;;;6.00;60.60;;;;;;5027566;28;20410;-73
2022/02/22 01:49:05;;;;;;;42.83;8.50;;;5.90;60.40;;;;;;5021493;28;20430;-73
2022/02/22 01:51:31;;;;;;;44.85;8.00;;;5.80;63.00;;;;;;5042372;28;20412;-73
2022/02/22 01:53:56;;;;;;;47.50;8.23;;;5.80;62.80;;;;;;5028771;28;20486;-73
2022/02/22 01:56:23;;;;;;;42.95;7.45;;;5.80;63.50;;;;;;5029379;28;20776;-73
2022/02/22 01:58:49;;;;;;;36.58;6.22;;;5.80;62.50;;;;;;5026584;28;20431;-72
2022/02/22 02:01:15;;;;;;;48.13;7.70;;;6.00;60.30;;;;;;5031508;28;20403;-72
2022/02/22 02:03:40;;;;;;;53.80;7.95;;;5.90;60.40;;;;;;5036517;28;20427;-73
2022/02/22 02:06:06;;;;;;;41.40;6.88;;;5.70;62.40;;;;;;5031029;28;20406;-73
2022/02/22 02:08:32;;;;;;;41.77;7.23;;;5.80;61.80;;;;;;5033745;28;20413;-72
2022/02/22 02:10:57;;;;;;;41.20;7.90;;;5.70;62.50;;;;;;5035583;28;20403;-73
2022/02/22 02:13:23;;;;;;;53.00;7.40;;;5.70;63.40;;;;;;5028404;28;20558;-72
2022/02/22 02:15:49;;;;;;;42.67;7.32;;;5.70;63.40;;;;;;5022332;28;20405;-72
2022/02/22 02:18:14;;;;;;;52.28;7.68;;;5.70;64.30;;;;;;5028000;28;20915;-71
2022/02/22 02:20:40;;;;;;;43.10;7.50;;;5.60;64.20;;;;;;5027428;28;20399;-71
2022/02/22 02:23:05;;;;;;;48.80;8.00;;;5.70;63.90;;;;;;5029145;28;20793;-71
2022/02/22 02:25:31;;;;;;;44.00;7.67;;;5.60;65.40;;;;;;5026076;28;20494;-72
2022/02/22 02:27:57;;;;;;;38.50;7.05;;;5.50;66.80;;;;;;5026953;28;20397;-72
2022/02/22 02:30:22;;;;;;;64.05;7.75;;;5.60;67.00;;;;;;5025301;28;20406;-72
2022/02/22 02:32:48;;;;;;;48.17;7.68;;;5.60;66.20;;;;;;5027516;28;21099;-72
2022/02/22 02:35:14;;;;;;;43.30;7.40;;;5.60;66.30;;;;;;5024344;28;20409;-72
2022/02/22 02:37:41;;;;;;;44.60;8.03;;;5.70;65.00;;;;;;5025666;28;20474;-73
2022/02/22 02:40:09;;;;;;;44.33;6.32;;;5.60;65.10;;;;;;5022868;28;20395;-72
2022/02/22 02:42:40;;;;;;;30.33;6.00;;;5.60;66.90;;;;;;5027880;28;20391;-72
2022/02/22 02:45:06;;;;;;;39.35;6.75;;;5.70;65.20;;;;;;5024242;28;20506;-72
2022/02/22 02:47:31;;;;;;;52.75;8.15;;;5.70;65.20;;;;;;5027849;28;20490;-72
2022/02/22 02:49:58;;;;;;;52.17;8.20;;;5.60;66.50;;;;;;5021745;28;20397;-72
2022/02/22 02:52:24;;;;;;;67.50;10.15;;;5.50;68.50;;;;;;5028781;28;20406;-72
2022/02/22 02:54:50;;;;;;;43.67;6.35;;;5.50;69.00;;;;;;5025242;28;20519;-72
2022/02/22 02:57:16;;;;;;;50.93;8.90;;;5.60;65.90;;;;;;5027097;28;20839;-72
2022/02/22 02:59:41;;;;;;;52.57;7.50;;;5.70;64.90;;;;;;5028579;28;20459;-72
2022/02/22 03:02:07;;;;;;;51.00;7.90;;;5.60;66.30;;;;;;5028314;28;20403;-72
2022/02/22 03:04:33;;;;;;;47.45;8.13;;;5.50;67.70;;;;;;5026168;28;20469;-72
2022/02/22 03:06:58;;;;;;;45.33;8.88;;;5.40;71.00;;;;;;5026648;28;20408;-72
2022/02/22 03:09:24;;;;;;;44.37;7.67;;;5.30;71.70;;;;;;5020851;28;20423;-71
2022/02/22 03:11:50;;;;;;;52.90;9.10;;;5.40;72.10;;;;;;5025823;28;20872;-71
2022/02/22 03:14:16;;;;;;;47.10;7.80;;;5.50;70.70;;;;;;5026769;28;20868;-71
2022/02/22 03:16:42;;;;;;;52.63;7.00;;;5.60;69.90;;;;;;5025726;28;20411;-71
2022/02/22 03:19:07;;;;;;;44.67;7.97;;;5.50;69.70;;;;;;5028320;28;20422;-72
2022/02/22 03:21:33;;;;;;;54.38;8.75;;;5.50;70.20;;;;;;5027468;28;20433;-72
2022/02/22 03:23:59;;;;;;;51.22;8.43;;;5.40;70.70;;;;;;5026027;28;20400;-72
2022/02/22 03:26:26;;;;;;;41.17;7.63;;;5.30;71.70;;;;;;5027405;28;20411;-73
2022/02/22 03:28:52;;;;;;;71.70;8.27;;;5.30;72.80;;;;;;5026246;28;20735;-71
2022/02/22 03:31:17;;;;;;;60.63;7.93;;;5.30;73.30;;;;;;5024662;28;20406;-72
2022/02/22 03:33:43;;;;;;;48.73;8.93;;;5.30;72.70;;;;;;5025180;28;20405;-72
2022/02/22 03:36:08;;;;;;;53.65;8.10;;;5.20;73.40;;;;;;5024930;28;20402;-71
2022/02/22 03:38:34;;;;;;;53.70;7.65;;;5.20;73.50;;;;;;5029497;28;20482;-72
2022/02/22 03:41:02;;;;;;;48.67;6.95;;;5.20;73.30;;;;;;5028087;28;20432;-72
2022/02/22 03:43:29;;;;;;;46.53;7.25;;;5.30;74.10;;;;;;5028288;28;20508;-72
2022/02/22 03:45:54;;;;;;;48.28;7.72;;;5.40;73.50;;;;;;5020719;28;20452;-73
2022/02/22 03:48:21;;;;;;;39.63;6.90;;;5.40;71.20;;;;;;5026618;28;20892;-73
2022/02/22 03:50:48;;;;;;;41.63;7.03;;;5.30;71.20;;;;;;5025524;28;20472;-73
2022/02/22 03:53:15;;;;;;;51.90;8.68;;;5.30;71.70;;;;;;5022527;28;20820;-73
2022/02/22 03:55:42;;;;;;;39.60;8.35;;;5.20;70.70;;;;;;5021001;28;20815;-73
2022/02/22 03:58:08;;;;;;;48.58;7.30;;;5.10;73.20;;;;;;5025867;28;20407;-73
2022/02/22 04:00:35;;;;;;;44.88;6.80;;;5.10;73.70;;;;;;5029999;28;20907;-73
2022/02/22 04:03:03;;;;;;;38.47;6.28;;;5.20;73.90;;;;;;5026677;28;20400;-73
2022/02/22 04:05:29;;;;;;;38.88;6.97;;;5.20;73.40;;;;;;5026954;28;20500;-74
2022/02/22 04:07:55;;;;;;;44.40;7.70;;;5.20;73.10;;;;;;5023523;28;20594;-73
2022/02/22 04:10:21;;;;;;;48.97;7.43;;;5.20;72.20;;;;;;5023104;28;20486;-72
2022/02/22 04:12:46;;;;;;;49.03;8.55;;;5.30;73.10;;;;;;5025238;28;20395;-73
2022/02/22 04:15:12;;;;;;;41.95;7.57;;;5.30;72.20;;;;;;5027390;28;20401;-72
2022/02/22 04:17:38;;;;;;;47.47;7.13;;;5.30;73.20;;;;;;5024121;28;20808;-72
2022/02/22 04:20:05;;;;;;;32.45;7.32;;;5.10;73.70;;;;;;5026475;28;20399;-73
2022/02/22 04:22:31;;;;;;;41.27;8.03;;;5.20;75.20;;;;;;5026939;28;20403;-71
2022/02/22 04:24:56;;;;;;;46.70;7.83;;;5.20;74.70;;;;;;5025630;28;20890;-71
2022/02/22 04:27:22;;;;;;;49.88;7.65;;;5.10;75.10;;;;;;5025904;28;20505;-71
2022/02/22 04:29:47;;;;;;;48.63;8.00;;;5.10;75.70;;;;;;5032596;28;20398;-72
2022/02/22 04:32:13;;;;;;;43.65;7.18;;;5.10;76.20;;;;;;5036069;28;20713;-71
2022/02/22 04:34:39;;;;;;;48.57;7.33;;;5.10;77.10;;;;;;5025801;28;21045;-71
2022/02/22 04:37:05;;;;;;;51.60;7.73;;;5.20;77.30;;;;;;5026855;28;20422;-72
2022/02/22 04:39:30;;;;;;;49.83;7.53;;;5.30;76.30;;;;;;5026561;28;20409;-71
2022/02/22 04:41:56;;;;;;;51.35;7.57;;;5.40;75.10;;;;;;5022039;28;20404;-71
2022/02/22 04:44:21;;;;;;;43.70;7.70;;;5.40;75.20;;;;;;5026268;28;20398;-71
2022/02/22 04:46:47;;;;;;;35.73;7.17;;;5.40;75.20;;;;;;5024756;28;20930;-72
2022/02/22 04:49:14;;;;;;;40.92;7.72;;;5.50;75.90;;;;;;5026297;28;20406;-72
2022/02/22 04:51:42;;;;;;;51.03;6.72;;;5.50;74.90;;;;;;5017343;28;20407;-71
2022/02/22 04:54:08;;;;;;;53.80;7.68;;;5.60;74.70;;;;;;5018290;28;20825;-71
2022/02/22 04:56:33;;;;;;;41.63;6.50;;;5.60;73.30;;;;;;5020857;28;20397;-72
2022/02/22 04:59:00;;;;;;;54.17;8.07;;;5.50;74.30;;;;;;5025733;28;20397;-72
2022/02/22 05:01:25;;;;;;;47.67;7.93;;;5.40;74.60;;;;;;5030808;28;20469;-73
2022/02/22 05:03:52;;;;;;;52.47;7.83;;;5.30;76.80;;;;;;5026988;28;20394;-72
2022/02/22 05:06:17;;;;;;;56.75;7.40;;;5.40;77.50;;;;;;5030755;28;20406;-71
2022/02/22 05:08:43;;;;;;;51.10;7.70;;;5.30;78.80;;;;;;5031127;28;20406;-73
2022/02/22 05:11:09;;;;;;;43.92;8.13;;;5.30;79.40;;;;;;5040241;28;20402;-72
2022/02/22 05:13:35;;;;;;;39.05;7.07;;;5.20;78.80;;;;;;5030857;28;20409;-72
2022/02/22 05:16:01;;;;;;;41.23;7.57;;;5.20;79.00;;;;;;5020834;28;20416;-72
2022/02/22 05:18:26;;;;;;;51.50;8.10;;;5.20;79.60;;;;;;5026377;28;20403;-72
2022/02/22 05:20:55;;;;;;;41.13;7.07;;;5.10;80.70;;;;;;5026371;28;20436;-71
2022/02/22 05:23:22;;;;;;;35.30;6.43;;;5.10;80.60;;;;;;5031502;28;20421;-71
2022/02/22 05:25:48;;;;;;;44.95;7.80;;;5.10;82.20;;;;;;5028296;28;20450;-72
2022/02/22 05:28:14;;;;;;;51.72;8.32;;;5.10;82.00;;;;;;5035770;28;20408;-71
2022/02/22 05:30:40;;;;;;;47.38;7.70;;;5.10;80.80;;;;;;5041852;28;20402;-71
2022/02/22 05:33:05;;;;;;;45.53;7.88;;;5.00;83.70;;;;;;5049268;28;20418;-71
2022/02/22 05:35:31;;;;;;;46.58;8.25;;;5.10;83.00;;;;;;5032829;28;20403;-72
2022/02/22 05:37:56;;;;;;;48.95;7.53;;;5.10;83.90;;;;;;5028900;28;20405;-72
2022/02/22 05:40:22;;;;;;;43.57;7.27;;;5.10;82.80;;;;;;5029154;28;20465;-71
2022/02/22 05:42:48;;;;;;;42.63;8.00;;;5.00;82.90;;;;;;5028812;28;20481;-70
2022/02/22 05:45:13;;;;;;;50.97;7.03;;;4.80;86.10;;;;;;5029533;28;20411;-72
2022/02/22 05:47:39;;;;;;;45.23;7.60;;;4.90;85.80;;;;;;5027254;28;20399;-72
2022/02/22 05:50:05;;;;;;;42.20;7.73;;;4.90;85.70;;;;;;5025347;28;20399;-72
2022/02/22 05:52:30;;;;;;;55.45;8.05;;;4.90;86.50;;;;;;5027232;28;20864;-72
2022/02/22 05:54:56;;;;;;;56.30;8.63;;;4.90;85.00;;;;;;5043218;28;20419;-71
2022/02/22 05:57:25;;;;;;;44.10;7.20;;;4.90;86.60;;;;;;5029930;28;20395;-72
2022/02/22 05:59:51;;;;;;;34.92;7.60;;;4.90;86.00;;;;;;5030046;28;20439;-73
2022/02/22 06:02:17;;;;;;;45.50;8.27;;;4.80;85.90;;;;;;5025798;28;20513;-73
2022/02/22 06:04:42;;;;;;;46.75;8.30;;;4.80;88.40;;;;;;5022698;28;20398;-73
2022/02/22 06:07:08;;;;;;;49.00;8.43;;;4.70;87.70;;;;;;5029330;28;20402;-72
2022/02/22 06:09:33;;;;;;;42.47;8.30;;;4.80;88.40;;;;;;5026526;28;20387;-72
2022/02/22 06:11:59;;;;;;;45.43;6.97;;;4.70;88.80;;;;;;5024338;28;20396;-73
2022/02/22 06:14:25;;;;;;;36.22;7.35;;;4.80;88.70;;;;;;5029521;28;20395;-72
2022/02/22 06:16:53;;;;;;;49.35;6.93;;;4.70;88.10;;;;;;5026940;28;20418;-72
2022/02/22 06:19:20;;;;;;;57.55;8.30;;;4.80;88.70;;;;;;5030043;28;20383;-72
2022/02/22 06:21:46;;;;;;;38.27;7.40;;;4.70;88.80;;;;;;5027136;28;20425;-73
2022/02/22 06:24:11;;;;;;;49.55;8.02;;;4.80;89.30;;;;;;5022952;28;20478;-72
2022/02/22 06:26:37;;;;;;;43.05;8.50;;;4.80;89.40;;;;;;5020889;28;20445;-72
2022/02/22 06:29:04;;;;;;;104.70;35.88;;;4.80;90.30;;;;;;5023487;28;20403;-72
2022/02/22 06:31:30;;;;;;;45.60;7.60;;;4.80;92.30;;;;;;5018316;28;20397;-72
2022/02/22 06:33:55;;;;;;;54.78;7.93;;;4.70;92.40;;;;;;5023148;28;20493;-73
2022/02/22 06:36:22;;;;;;;46.85;6.60;;;4.80;90.90;;;;;;5016036;28;20513;-72
2022/02/22 06:38:47;;;;;;;40.80;7.18;;;4.70;89.60;;;;;;5020678;28;20561;-72
2022/02/22 06:41:13;;;;;;;49.00;9.20;;;4.70;90.30;;;;;;5027776;28;20509;-72
2022/02/22 06:43:39;;;;;;;50.03;8.20;;;4.70;92.30;;;;;;5027437;28;20406;-72
2022/02/22 06:46:05;;;;;;;43.67;8.02;;;4.80;91.70;;;;;;5026448;28;20418;-73
2022/02/22 06:48:30;;;;;;;42.40;7.75;;;4.80;92.70;;;;;;5028001;28;20698;-73
2022/02/22 06:50:56;;;;;;;48.45;7.95;;;4.90;91.00;;;;;;5027723;28;20450;-72
2022/02/22 06:53:21;;;;;;;53.00;7.80;;;4.90;90.10;;;;;;5017970;28;20405;-72
2022/02/22 06:55:47;;;;;;;40.63;7.93;;;4.90;90.00;;;;;;5021521;28;20418;-72
2022/02/22 06:58:13;;;;;;;48.27;8.53;;;4.80;89.00;;;;;;5019693;28;20395;-72
2022/02/22 07:00:41;;;;;;;44.77;9.60;;;4.80;90.10;;;;;;5024646;28;20498;-72
2022/02/22 07:03:07;;;;;;;42.03;8.90;;;4.80;88.40;;;;;;5021764;28;20401;-72
2022/02/22 07:05:33;;;;;;;43.60;9.30;;;4.70;88.60;;;;;;5020156;28;20511;-73
2022/02/22 07:07:59;;;;;;;37.95;9.95;;;4.80;89.80;;;;;;5021145;28;20487;-72
2022/02/22 07:10:26;;;;;;;68.23;11.00;;;4.70;91.00;;;;;;5022533;28;20432;-73
2022/02/22 07:12:52;;;;;;;56.33;10.73;;;4.70;92.60;;;;;;5025945;28;20387;-72
2022/02/22 07:15:18;;;;;;;57.70;10.40;;;4.80;90.30;;;;;;5021020;28;20464;-73
2022/02/22 07:17:52;;;;;;;46.70;10.65;;;4.80;89.10;;;;;;5020986;28;20405;-73
2022/02/22 07:20:20;;;;;;;45.50;10.95;;;4.70;90.10;;;;;;5024603;28;20886;-73
2022/02/22 07:22:48;;;;;;;53.20;11.73;;;4.80;91.70;;;;;;5029067;28;20414;-74
2022/02/22 07:25:15;;;;;;;40.15;9.70;;;5.00;87.90;;;;;;5020308;28;20411;-75
2022/02/22 07:27:44;;;;;;;43.47;9.30;;;5.10;86.10;;;;;;5025113;28;20446;-74
2022/02/22 07:30:12;;;;;;;48.45;10.52;;;5.20;85.50;;;;;;5020004;28;20449;-75
2022/02/22 07:32:37;;;;;;;48.83;9.68;;;5.40;83.40;;;;;;5030541;28;20431;-75
2022/02/22 07:35:04;;;;;;;40.83;10.00;;;5.60;80.00;;;;;;5041525;28;20428;-75
2022/02/22 07:37:31;;;;;;;44.70;9.70;;;5.70;77.50;;;;;;5028641;28;20412;-76
2022/02/22 07:39:57;;;;;;;45.30;9.18;;;5.80;77.00;;;;;;5018842;28;20400;-75
2022/02/22 07:42:22;;;;;;;37.75;8.52;;;5.90;72.80;;;;;;5017113;28;20419;-75
2022/02/22 07:44:48;;;;;;;35.08;9.07;;;6.00;72.80;;;;;;5018257;28;20748;-76
2022/02/22 07:47:13;;;;;;;42.70;9.10;;;6.10;68.70;;;;;;5024947;28;20920;-77
2022/02/22 07:49:39;;;;;;;41.83;9.00;;;6.20;66.20;;;;;;5021095;28;20407;-73
2022/02/22 07:52:05;;;;;;;33.37;8.10;;;6.20;66.40;;;;;;5029402;28;20395;-73
2022/02/22 07:54:30;;;;;;;42.63;8.50;;;6.30;65.30;;;;;;5022788;28;20418;-74
2022/02/22 07:56:56;;;;;;;35.00;7.30;;;6.50;64.80;;;;;;5020635;28;20397;-73
2022/02/22 07:59:22;;;;;;;37.53;7.10;;;6.50;65.10;;;;;;5024293;28;20491;-73
2022/02/22 08:01:49;;;;;;;33.38;7.78;;;6.60;61.90;;;;;;5025342;28;20486;-74
2022/02/22 08:04:15;;;;;;;38.20;8.02;;;6.70;60.70;;;;;;5034402;28;20441;-74
2022/02/22 08:06:41;;;;;;;31.23;7.17;;;6.70;59.20;;;;;;5032658;28;20450;-74
2022/02/22 08:09:07;;;;;;;35.63;6.82;;;6.70;59.80;;;;;;5022250;28;20401;-73
2022/02/22 08:11:32;;;;;;;25.50;6.88;;;6.70;58.80;;;;;;5036794;28;20399;-74
2022/02/22 08:13:59;;;;;;;39.90;7.43;;;6.70;59.30;;;;;;5040247;28;20487;-74
2022/02/22 08:16:29;;;;;;;34.67;6.85;;;6.70;59.10;;;;;;5043292;28;20400;-74
2022/02/22 08:18:56;;;;;;;32.60;7.25;;;6.90;57.40;;;;;;5026230;28;20773;-75
2022/02/22 08:21:22;;;;;;;36.27;7.23;;;7.10;56.20;;;;;;5024138;28;20420;-74
2022/02/22 08:23:48;;;;;;;38.53;8.00;;;7.20;56.90;;;;;;5018809;28;20891;-75
2022/02/22 08:26:14;;;;;;;33.13;7.20;;;7.40;55.40;;;;;;5027376;28;20500;-75
2022/02/22 08:28:40;;;;;;;37.47;7.70;;;7.30;54.90;;;;;;5026578;28;20436;-75
2022/02/22 08:31:05;;;;;;;33.53;7.90;;;7.30;55.30;;;;;;5023085;28;20496;-75
2022/02/22 08:33:31;;;;;;;33.42;6.60;;;7.50;53.70;;;;;;5027686;28;20402;-75
2022/02/22 08:35:58;;;;;;;33.15;7.45;;;7.70;52.90;;;;;;5019893;28;20408;-74
2022/02/22 08:38:24;;;;;;;33.13;7.30;;;7.70;52.40;;;;;;5025899;28;20410;-74
2022/02/22 08:40:49;;;;;;;32.97;6.65;;;7.90;51.00;;;;;;5022866;28;20407;-77
2022/02/22 08:43:15;;;;;;;36.80;7.20;;;8.10;49.70;;;;;;5022631;28;20423;-74
2022/02/22 08:45:43;;;;;;;30.98;7.00;;;8.20;49.20;;;;;;5020682;28;20410;-73
2022/02/22 08:48:10;;;;;;;36.40;6.88;;;8.40;47.80;;;;;;5035506;28;20414;-73
2022/02/22 08:50:36;;;;;;;23.60;5.78;;;8.60;46.30;;;;;;5022950;28;20521;-73
2022/02/22 08:53:02;;;;;;;24.88;6.10;;;8.60;46.60;;;;;;5037162;28;20471;-73
2022/02/22 08:55:28;;;;;;;36.80;6.30;;;8.70;45.50;;;;;;5023969;28;20406;-73
2022/02/22 08:57:56;;;;;;;29.58;6.70;;;8.60;44.60;;;;;;5019300;28;20424;-73
2022/02/22 09:00:23;;;;;;;33.65;6.43;;;8.40;46.50;;;;;;5029090;28;20490;-73
2022/02/22 09:02:53;;;;;;;23.45;5.90;;;8.50;46.50;;;;;;5025368;28;20405;-73
2022/02/22 09:05:19;;;;;;;32.65;6.45;;;8.40;46.80;;;;;;5027792;28;20416;-73
2022/02/22 09:07:45;;;;;;;28.17;5.68;;;8.50;45.50;;;;;;5023505;28;20430;-73
2022/02/22 09:10:15;;;;;;;30.80;6.50;;;8.50;46.30;;;;;;5023630;28;20892;-75
2022/02/22 09:12:43;;;;;;;30.42;6.35;;;8.40;47.80;;;;;;5028819;28;20400;-74
2022/02/22 09:15:10;;;;;;;22.20;5.25;;;8.40;47.30;;;;;;5024182;28;20422;-73
2022/02/22 09:17:36;;;;;;;25.02;6.20;;;8.50;47.90;;;;;;5022821;28;20396;-73
2022/02/22 09:20:04;;;;;;;27.17;5.90;;;8.50;48.00;;;;;;5030751;28;20439;-74
2022/02/22 09:22:29;;;;;;;21.37;5.73;;;8.70;46.90;;;;;;5030812;28;20398;-74
2022/02/22 09:24:55;;;;;;;25.48;5.90;;;8.80;45.50;;;;;;5029388;28;20414;-74
2022/02/22 09:27:20;;;;;;;23.52;6.30;;;8.70;45.30;;;;;;5025945;28;20401;-73
2022/02/22 09:29:46;;;;;;;24.03;5.60;;;8.80;45.70;;;;;;5023444;28;20613;-74
2022/02/22 09:32:12;;;;;;;22.10;5.60;;;9.00;44.60;;;;;;5025336;28;20395;-74
2022/02/22 09:34:38;;;;;;;25.00;5.63;;;9.00;43.90;;;;;;5025907;28;20397;-73
2022/02/22 09:37:05;;;;;;;31.80;7.00;;;9.00;45.10;;;;;;5023854;28;20397;-74
2022/02/22 09:39:31;;;;;;;30.80;7.30;;;9.10;45.10;;;;;;5022262;28;20400;-74
2022/02/22 09:41:57;;;;;;;26.50;7.00;;;9.30;43.80;;;;;;5024063;28;20391;-75
2022/02/22 09:44:22;;;;;;;24.60;6.85;;;9.40;42.60;;;;;;5023264;28;20428;-74
2022/02/22 09:46:50;;;;;;;23.45;7.97;;;9.60;42.30;;;;;;5023653;28;20515;-75
2022/02/22 09:49:16;;;;;;;34.85;8.35;;;9.80;41.00;;;;;;5025989;28;20436;-74
2022/02/22 09:51:41;;;;;;;27.52;7.57;;;9.90;39.90;;;;;;5026416;28;20423;-75
2022/02/22 09:54:07;;;;;;;29.08;8.40;;;10.30;39.10;;;;;;5031024;28;20406;-76
2022/02/22 09:56:44;;;;;;;29.70;8.50;;;10.40;38.70;;;;;;5030873;28;20403;-75
2022/02/22 09:59:10;;;;;;;24.75;8.57;;;10.50;37.90;;;;;;5028548;28;20714;-75
2022/02/22 10:01:47;;;;;;;32.95;8.80;;;10.40;38.00;;;;;;5025194;28;20392;-75
2022/02/22 10:04:13;;;;;;;35.22;9.57;;;10.30;38.60;;;;;;5028793;28;20407;-73
2022/02/22 10:06:41;;;;;;;33.67;8.30;;;10.30;38.80;;;;;;5030546;28;20411;-74
2022/02/22 10:09:11;;;;;;;28.10;7.90;;;10.50;37.50;;;;;;5027320;28;20403;-72
2022/02/22 10:11:50;;;;;;;34.40;8.38;;;10.60;36.00;;;;;;5031281;28;20415;-76
2022/02/22 10:14:29;;;;;;;29.73;8.95;;;10.80;35.60;;;;;;5032438;28;20409;-75
2022/02/22 10:16:57;;;;;;;33.35;8.93;;;10.70;36.60;;;;;;5033088;28;20395;-74
2022/02/22 10:19:28;;;;;;;26.25;8.55;;;10.80;36.70;;;;;;5032006;28;20456;-74
2022/02/22 10:21:57;;;;;;;32.20;8.90;;;10.90;35.10;;;;;;5032080;28;20806;-75
2022/02/22 10:24:28;;;;;;;32.42;8.63;;;11.10;34.10;;;;;;5025698;28;20414;-75
2022/02/22 10:27:23;;;;;;;28.00;7.70;;;11.00;33.80;;;;;;5023004;28;20410;-77
2022/02/22 10:29:48;;;;;;;33.70;7.88;;;10.90;33.60;;;;;;5013529;28;20411;-74
2022/02/22 10:32:16;;;;;;;31.20;9.00;;;11.00;34.10;;;;;;5025320;28;20481;-73
2022/02/22 10:34:42;;;;;;;30.10;8.10;;;10.90;33.90;;;;;;5031107;28;20411;-73
2022/02/22 10:37:11;;;;;;;39.53;8.38;;;10.90;33.80;;;;;;5042839;28;20400;-73
2022/02/22 10:39:36;;;;;;;28.95;7.55;;;10.70;34.60;;;;;;5043138;28;20489;-74
2022/02/22 10:42:03;;;;;;;25.93;7.53;;;10.60;35.10;;;;;;5045880;28;21010;-75
2022/02/22 10:44:36;;;;;;;25.27;7.00;;;10.70;35.00;;;;;;5042644;28;20411;-74
2022/02/22 10:47:06;;;;;;;25.75;6.95;;;10.60;35.10;;;;;;5045293;28;20412;-73
2022/02/22 10:49:34;;;;;;;26.48;7.13;;;10.50;35.40;;;;;;5045608;28;20463;-73
2022/02/22 10:52:09;;;;;;;25.33;6.90;;;10.40;34.50;;;;;;5032539;28;20406;-74
2022/02/22 10:54:35;;;;;;;27.17;7.00;;;10.30;35.80;;;;;;5025629;28;20730;-73
2022/02/22 10:57:01;;;;;;;37.90;7.22;;;10.40;35.80;;;;;;5027187;28;20802;-74
2022/02/22 10:59:27;;;;;;;26.80;7.35;;;10.40;35.50;;;;;;5028534;28;20401;-73
2022/02/22 11:01:54;;;;;;;40.30;7.68;;;10.40;36.20;;;;;;5033348;28;20586;-73
2022/02/22 11:04:20;;;;;;;33.07;7.87;;;10.40;35.90;;;;;;5032567;28;20407;-74
2022/02/22 11:06:46;;;;;;;26.50;6.07;;;10.40;35.80;;;;;;5034381;28;20477;-73
2022/02/22 11:09:17;;;;;;;30.40;7.05;;;10.60;35.40;;;;;;5034022;28;20405;-73
2022/02/22 11:12:05;;;;;;;32.45;6.43;;;10.60;36.80;;;;;;5036053;28;20387;-75
2022/02/22 11:14:33;;;;;;;31.45;7.38;;;10.50;36.30;;;;;;5036129;28;20399;-75
2022/02/22 11:17:22;;;;;;;28.95;7.05;;;10.50;36.70;;;;;;5034884;28;20403;-74
2022/02/22 11:19:50;;;;;;;30.60;7.22;;;10.60;35.50;;;;;;5030060;28;20478;-75
2022/02/22 11:22:19;;;;;;;33.83;7.82;;;10.60;35.40;;;;;;5017476;28;20401;-74
2022/02/22 11:24:50;;;;;;;27.52;6.50;;;10.60;34.90;;;;;;5022552;28;21130;-74
2022/02/22 11:27:27;;;;;;;27.10;6.57;;;10.50;35.70;;;;;;5041701;28;20767;-75
2022/02/22 11:29:56;;;;;;;32.50;8.00;;;10.40;37.40;;;;;;5020377;28;20825;-74
2022/02/22 11:32:23;;;;;;;30.20;6.90;;;10.50;38.10;;;;;;5032005;28;20416;-74
2022/02/22 11:34:49;;;;;;;29.98;7.22;;;10.40;38.50;;;;;;5036840;28;20391;-74
2022/02/22 11:37:17;;;;;;;33.40;7.88;;;10.60;38.20;;;;;;5033989;28;20415;-75
2022/02/22 11:39:52;;;;;;;38.35;7.90;;;10.60;37.30;;;;;;5034775;28;20403;-75
2022/02/22 11:42:28;;;;;;;27.88;6.75;;;10.70;36.70;;;;;;5036767;28;20396;-75
2022/02/22 11:45:10;;;;;;;33.83;7.30;;;10.60;36.70;;;;;;5022738;28;20426;-74
2022/02/22 11:47:40;;;;;;;28.88;5.88;;;10.60;36.50;;;;;;5034899;28;20403;-75
2022/02/22 11:50:15;;;;;;;37.07;6.37;;;10.60;36.50;;;;;;5023790;28;20401;-75
2022/02/22 11:52:46;;;;;;;30.98;6.80;;;10.70;35.00;;;;;;5024460;28;20911;-75
2022/02/22 11:55:17;;;;;;;29.38;6.05;;;10.80;35.10;;;;;;5026706;28;20439;-74
2022/02/22 11:57:51;;;;;;;29.58;6.50;;;10.70;34.90;;;;;;5023726;28;20394;-73
2022/02/22 12:00:19;;;;;;;25.10;6.13;;;10.80;34.30;;;;;;5027949;28;20415;-74
2022/02/22 12:02:46;;;;;;;26.95;6.50;;;10.80;34.40;;;;;;5030642;28;20404;-74
2022/02/22 12:05:38;;;;;;;33.85;7.07;;;10.60;35.60;;;;;;5029092;28;20442;-73
2022/02/22 12:08:07;;;;;;;28.83;6.43;;;10.60;34.30;;;;;;5023598;28;20414;-74
2022/02/22 12:10:43;;;;;;;34.90;6.32;;;10.50;34.70;;;;;;5024660;28;20400;-73
2022/02/22 12:13:11;;;;;;;34.40;6.70;;;10.40;35.60;;;;;;5018151;28;20454;-74
2022/02/22 12:15:37;;;;;;;27.77;5.85;;;10.20;37.80;;;;;;5026056;28;20432;-74
2022/02/22 12:18:03;;;;;;;31.10;6.85;;;10.00;38.60;;;;;;5021828;28;20416;-73
2022/02/22 12:20:29;;;;;;;28.70;6.03;;;10.00;39.20;;;;;;5026207;28;20775;-74
2022/02/22 12:22:58;;;;;;;36.10;7.05;;;10.10;38.70;;;;;;5025103;28;20400;-74
2022/02/22 12:25:25;;;;;;;32.53;7.18;;;10.10;38.40;;;;;;5024195;28;20431;-74
2022/02/22 12:28:04;;;;;;;32.65;7.70;;;10.10;39.20;;;;;;5016973;28;20403;-75
2022/02/22 12:30:34;;;;;;;29.15;6.28;;;10.10;40.30;;;;;;5025636;28;20469;-74
2022/02/22 12:33:01;;;;;;;39.00;5.85;;;10.10;40.60;;;;;;5027083;28;20403;-74
2022/02/22 12:35:37;;;;;;;30.95;6.80;;;10.00;41.00;;;;;;5027539;28;20505;-74
2022/02/22 12:38:12;;;;;;;36.17;6.85;;;10.00;42.80;;;;;;5030234;28;20447;-73
2022/02/22 12:40:38;;;;;;;30.25;7.50;;;9.90;45.30;;;;;;5032677;28;20403;-74
2022/02/22 12:43:09;;;;;;;25.98;6.28;;;9.90;46.30;;;;;;5041968;28;20490;-73
2022/02/22 12:45:37;;;;;;;30.63;6.32;;;9.90;48.10;;;;;;5041848;28;20463;-74